LFML 240430Z AUTO 35010KT CAVOK 13/06 Q1017 BECMG 35015G30KT

ElémentsDécodage
LFML Station météo située sur l'aérodrome de MARSEILLE PROVENCE
240430Z émis le 24 du mois à 04h30 UTC
AUTO Bulletin édité par un automate
35010KT vent du 350°, 10 noeuds
CAVOK Ceiling And Visibility OK
- Visibilité de 10 Km ou plus
- Pas de nuage au-dessous de 1500m ou au-dessous de l'altitude minimale du secteur la plus élevée (si>1500m) et absence de CB
- pas de temps présent significatif
13/06 température 13°C, point de rosée 06°C
 soit une humidité relative de 62%
Q1017 la pression au niveau de la mer (QNH) est de 1017 hPa
BECMG fluctuation du temps prévue
35015G30KT vent du 350°, moyenne: 15 noeuds, avec rafales à 30 noeuds